Terminal Aerodrome Forecast
Issued by NWS

Home | Current Version | Previous Version | Graphics & Text | Print | Product List | Glossary On
Versions: 1 2 3 4 5 6 7 8 9 10 11 12 13 14 15 16 17 18 19 20 21 22 23 24 25 26 27 28 29 30 31
000
FTUS43 KGRB 300155 AAA
TAFRHI
TAF AMD
KRHI 300155Z 3002/3024 34009KT 5SM -RA BR BKN009
     FM300400 01007KT 4SM -RADZ BR OVC005
     FM300900 01010KT 6SM -DZ BR BKN009 OVC015
     FM301200 01010G16KT P6SM BKN015
     FM301500 35008G17KT P6SM SCT025=

USA.gov is the U.S. government's official web portal to all federal, state and local government web resources and services.